Time;durP1;ratioP1;P1;durP2;ratioP2;P2;SDS_P1;SDS_P2;PMS_P1;PMS_P2;Temp;Humidity;BMP_temperature;BMP_pressure;BME280_temperature;BME280_humidity;BME280_pressure;Samples;Min_cycle;Max_cycle;Signal;HPM_P1;HPM_P2
2021/04/23 00:01:03;;;;;;;13.63;5.70;;;3.30;99.90;;;;;;5034731;28;20205;-83
2021/04/23 00:03:34;;;;;;;15.32;6.10;;;3.20;99.90;;;;;;5034992;28;20198;-83
2021/04/23 00:06:05;;;;;;;17.52;6.85;;;3.10;99.90;;;;;;5034186;28;20183;-84
2021/04/23 00:08:32;;;;;;;10.82;6.13;;;3.10;99.90;;;;;;5034470;28;20219;-84
2021/04/23 00:10:59;;;;;;;11.00;6.43;;;3.00;99.90;;;;;;5034601;28;20209;-84
2021/04/23 00:13:25;;;;;;;9.02;6.00;;;3.00;99.90;;;;;;5034442;28;20194;-84
2021/04/23 00:15:53;;;;;;;11.27;6.80;;;2.90;99.90;;;;;;5034468;28;20558;-84
2021/04/23 00:18:20;;;;;;;11.15;6.80;;;2.90;99.90;;;;;;5034672;28;20665;-83
2021/04/23 00:20:48;;;;;;;11.55;6.50;;;2.80;99.90;;;;;;5034746;28;20187;-84
2021/04/23 00:23:16;;;;;;;9.27;6.55;;;2.70;99.90;;;;;;5021823;28;20676;-83
2021/04/23 00:25:42;;;;;;;8.18;5.78;;;2.70;99.90;;;;;;5034507;28;20650;-83
2021/04/23 00:28:13;;;;;;;11.63;6.07;;;2.70;99.90;;;;;;5034164;28;20565;-83
2021/04/23 00:30:42;;;;;;;14.93;7.00;;;2.60;99.90;;;;;;5034360;28;20513;-83
2021/04/23 00:33:09;;;;;;;8.15;5.88;;;2.60;99.90;;;;;;5033897;28;20697;-84
2021/04/23 00:35:38;;;;;;;8.48;5.50;;;2.50;99.90;;;;;;5034322;28;20194;-84
2021/04/23 00:38:08;;;;;;;10.05;6.20;;;2.50;99.90;;;;;;5034023;28;20189;-84
2021/04/23 00:40:38;;;;;;;8.90;6.03;;;2.40;99.90;;;;;;5033919;28;20198;-85
2021/04/23 00:43:06;;;;;;;13.25;6.80;;;2.40;99.90;;;;;;5034401;28;20566;-85
2021/04/23 00:45:32;;;;;;;10.75;6.65;;;2.40;99.90;;;;;;5039605;28;20193;-84
2021/04/23 00:48:01;;;;;;;14.05;7.07;;;2.30;99.90;;;;;;5033758;28;20217;-85
2021/04/23 00:50:31;;;;;;;10.90;6.38;;;2.30;99.90;;;;;;5033606;28;20524;-85
2021/04/23 00:52:58;;;;;;;12.10;6.88;;;2.30;99.90;;;;;;5033817;28;20216;-85
2021/04/23 00:55:26;;;;;;;11.35;7.68;;;2.30;99.90;;;;;;5033876;28;20193;-85
2021/04/23 00:57:54;;;;;;;10.40;7.47;;;2.30;99.90;;;;;;5023557;28;20278;-85
2021/04/23 01:00:22;;;;;;;10.93;7.82;;;2.30;99.90;;;;;;5034084;28;20197;-83
2021/04/23 01:02:48;;;;;;;12.68;8.00;;;2.20;99.90;;;;;;5033438;28;20189;-83
2021/04/23 01:05:16;;;;;;;11.38;8.60;;;2.20;99.90;;;;;;5033707;28;20189;-84
2021/04/23 01:07:44;;;;;;;13.05;7.90;;;2.20;99.90;;;;;;5032981;28;20215;-84
2021/04/23 01:10:12;;;;;;;9.43;7.57;;;2.20;99.90;;;;;;5033487;28;20195;-84
2021/04/23 01:12:40;;;;;;;12.95;6.18;;;2.10;99.90;;;;;;5032814;28;20592;-84
2021/04/23 01:15:08;;;;;;;29.90;10.55;;;2.00;99.90;;;;;;5033872;28;20573;-84
2021/04/23 01:17:34;;;;;;;9.00;6.72;;;2.00;99.90;;;;;;5033404;28;20197;-84
2021/04/23 01:20:01;;;;;;;14.23;6.50;;;2.00;99.90;;;;;;5033314;28;20192;-84
2021/04/23 01:22:28;;;;;;;16.55;8.02;;;1.90;99.90;;;;;;5033026;28;20239;-84
2021/04/23 01:24:54;;;;;;;14.15;6.15;;;1.80;99.90;;;;;;5033205;28;20653;-84
2021/04/23 01:27:20;;;;;;;15.45;7.47;;;1.80;99.90;;;;;;5033023;28;20227;-84
2021/04/23 01:29:46;;;;;;;18.63;8.07;;;1.70;99.90;;;;;;5033139;28;20196;-84
2021/04/23 01:32:13;;;;;;;18.17;8.15;;;1.70;99.90;;;;;;5033296;28;20192;-84
2021/04/23 01:34:41;;;;;;;12.98;8.15;;;1.70;99.90;;;;;;5033181;28;20227;-84
2021/04/23 01:37:09;;;;;;;12.13;7.22;;;1.70;99.90;;;;;;5033001;28;20545;-84
2021/04/23 01:39:38;;;;;;;12.38;7.00;;;1.60;99.90;;;;;;5031602;28;20188;-84
2021/04/23 01:42:06;;;;;;;8.82;7.70;;;1.60;99.90;;;;;;5032422;28;20188;-84
2021/04/23 01:44:32;;;;;;;11.45;8.40;;;1.50;99.90;;;;;;5032598;28;20188;-84
2021/04/23 01:46:59;;;;;;;12.65;6.38;;;1.50;99.90;;;;;;5033341;28;20216;-84
2021/04/23 01:49:27;;;;;;;13.35;8.40;;;1.50;99.90;;;;;;5032800;28;20190;-84
2021/04/23 01:51:57;;;;;;;15.35;8.13;;;1.50;99.90;;;;;;5033329;28;20208;-84
2021/04/23 01:54:25;;;;;;;14.60;8.93;;;1.50;99.90;;;;;;5032471;28;20283;-84
2021/04/23 01:56:53;;;;;;;14.70;7.78;;;1.50;99.90;;;;;;5033478;28;20199;-84
2021/04/23 01:59:20;;;;;;;18.02;7.47;;;1.40;99.90;;;;;;5032774;28;20250;-84
2021/04/23 02:01:47;;;;;;;10.40;7.18;;;1.40;99.90;;;;;;5033295;28;20198;-84
2021/04/23 02:04:16;;;;;;;13.68;6.82;;;1.40;99.90;;;;;;5032654;28;20677;-84
2021/04/23 02:06:44;;;;;;;15.68;8.27;;;1.40;99.90;;;;;;5032808;28;20198;-84
2021/04/23 02:09:11;;;;;;;18.52;9.38;;;1.30;99.90;;;;;;5032842;28;20285;-83
2021/04/23 02:11:39;;;;;;;12.68;7.20;;;1.30;99.90;;;;;;5033601;28;20198;-84
2021/04/23 02:14:06;;;;;;;17.30;10.55;;;1.30;99.90;;;;;;5033374;28;20550;-85
2021/04/23 02:16:33;;;;;;;10.55;7.18;;;1.30;99.90;;;;;;5033261;28;20557;-85
2021/04/23 02:19:00;;;;;;;16.52;8.35;;;1.20;99.90;;;;;;5033180;28;20659;-84
2021/04/23 02:21:27;;;;;;;14.13;8.95;;;1.20;99.90;;;;;;5033074;28;20189;-85
2021/04/23 02:23:53;;;;;;;14.60;9.20;;;1.20;99.90;;;;;;5033618;28;20197;-85
2021/04/23 02:26:21;;;;;;;12.30;8.48;;;1.20;99.90;;;;;;5050535;28;20188;-85
2021/04/23 02:28:49;;;;;;;12.55;7.00;;;1.10;99.90;;;;;;5053242;28;20222;-84
2021/04/23 02:31:18;;;;;;;13.27;8.80;;;1.10;99.90;;;;;;5052952;28;20191;-85
2021/04/23 02:33:47;;;;;;;15.95;6.95;;;1.00;99.90;;;;;;5054563;28;20223;-84
2021/04/23 02:36:14;;;;;;;11.75;7.20;;;1.00;99.90;;;;;;5059541;28;20213;-84
2021/04/23 02:38:41;;;;;;;13.38;8.05;;;1.00;99.90;;;;;;5057783;28;20631;-84
2021/04/23 02:41:07;;;;;;;19.52;9.93;;;1.00;99.90;;;;;;5057584;28;20196;-84
2021/04/23 02:43:36;;;;;;;11.40;7.55;;;1.00;99.90;;;;;;5056408;28;20193;-84
2021/04/23 02:46:03;;;;;;;13.23;7.32;;;1.00;99.90;;;;;;5055250;28;20187;-83
2021/04/23 02:48:34;;;;;;;14.00;8.75;;;1.00;99.90;;;;;;5050609;28;20227;-83
2021/04/23 02:51:03;;;;;;;12.63;7.75;;;0.90;99.90;;;;;;5042851;28;20203;-84
2021/04/23 02:53:30;;;;;;;14.52;8.75;;;0.90;99.90;;;;;;5035369;28;20234;-84
2021/04/23 02:55:57;;;;;;;14.15;9.20;;;0.90;99.90;;;;;;5038381;28;20185;-84
2021/04/23 02:58:24;;;;;;;14.30;9.05;;;0.80;99.90;;;;;;5037981;28;20182;-84
2021/04/23 03:00:53;;;;;;;11.70;7.57;;;0.80;99.90;;;;;;5041524;28;20188;-84
2021/04/23 03:03:21;;;;;;;12.88;7.28;;;0.70;99.90;;;;;;5038005;28;20182;-84
2021/04/23 03:05:49;;;;;;;14.75;6.60;;;0.70;99.90;;;;;;5037057;28;20192;-84
2021/04/23 03:08:17;;;;;;;14.45;9.38;;;0.80;99.90;;;;;;5036074;28;20209;-84
2021/04/23 03:10:48;;;;;;;13.15;7.50;;;0.70;99.90;;;;;;5036796;28;20189;-84
2021/04/23 03:13:17;;;;;;;14.55;9.85;;;0.70;99.90;;;;;;5036186;28;20189;-84
2021/04/23 03:15:43;;;;;;;17.42;9.48;;;0.70;99.90;;;;;;5036329;28;20710;-84
2021/04/23 03:18:11;;;;;;;14.20;9.38;;;0.60;99.90;;;;;;5034753;28;20189;-84
2021/04/23 03:20:38;;;;;;;16.25;9.05;;;0.60;99.90;;;;;;5036332;28;20553;-84
2021/04/23 03:23:05;;;;;;;13.73;8.23;;;0.50;99.90;;;;;;5035895;28;20181;-84
2021/04/23 03:25:32;;;;;;;13.57;8.50;;;0.50;99.90;;;;;;5036414;28;20189;-85
2021/04/23 03:27:59;;;;;;;14.35;8.70;;;0.40;99.90;;;;;;5035824;28;20676;-84
2021/04/23 03:30:27;;;;;;;13.25;10.07;;;0.40;99.90;;;;;;5036129;28;20251;-84
2021/04/23 03:32:54;;;;;;;14.00;8.77;;;0.40;99.90;;;;;;5035433;28;20220;-84
2021/04/23 03:35:21;;;;;;;13.27;10.38;;;0.40;99.90;;;;;;5045771;28;20185;-84
2021/04/23 03:37:48;;;;;;;11.30;8.75;;;0.30;99.90;;;;;;5047424;28;20185;-85
2021/04/23 03:40:20;;;;;;;21.05;12.07;;;0.40;99.90;;;;;;5051014;28;20242;-84
2021/04/23 03:42:47;;;;;;;15.27;10.10;;;0.40;99.90;;;;;;5036863;28;20189;-84
2021/04/23 03:45:16;;;;;;;19.08;11.90;;;0.40;99.90;;;;;;5036071;28;20181;-85
2021/04/23 03:47:43;;;;;;;18.67;11.52;;;0.50;99.90;;;;;;5035082;28;20212;-85
2021/04/23 03:50:12;;;;;;;22.75;12.88;;;0.50;99.90;;;;;;5035570;28;20189;-85
2021/04/23 03:52:38;;;;;;;19.90;11.82;;;0.60;99.90;;;;;;5034977;28;20242;-85
2021/04/23 03:55:10;;;;;;;16.92;12.50;;;0.60;99.90;;;;;;5035823;28;20191;-85
2021/04/23 03:57:37;;;;;;;22.77;12.88;;;0.60;99.90;;;;;;5036043;28;20184;-85
2021/04/23 04:00:06;;;;;;;15.45;10.30;;;0.50;99.90;;;;;;5037838;28;20181;-84
2021/04/23 04:02:32;;;;;;;17.52;10.77;;;0.50;99.90;;;;;;5040641;28;20221;-84
2021/04/23 04:04:59;;;;;;;19.73;11.88;;;0.50;99.90;;;;;;5034650;28;20189;-84
2021/04/23 04:07:25;;;;;;;18.17;10.20;;;0.40;99.90;;;;;;5034787;28;20213;-84
2021/04/23 04:09:51;;;;;;;18.65;10.43;;;0.40;99.90;;;;;;5034818;28;20280;-84
2021/04/23 04:12:18;;;;;;;18.73;12.75;;;0.30;99.90;;;;;;5033303;28;20818;-84
2021/04/23 04:14:45;;;;;;;26.08;10.50;;;0.30;99.90;;;;;;5034594;28;20685;-84
2021/04/23 04:17:11;;;;;;;21.00;12.05;;;0.30;99.90;;;;;;5034974;28;20237;-84
2021/04/23 04:19:37;;;;;;;16.73;12.80;;;0.30;99.90;;;;;;5034842;28;20299;-84
2021/04/23 04:22:04;;;;;;;24.00;10.95;;;0.30;99.90;;;;;;5034711;28;20187;-85
2021/04/23 04:24:30;;;;;;;16.92;11.50;;;0.20;99.90;;;;;;5034966;28;20185;-85
2021/04/23 04:26:56;;;;;;;20.40;12.05;;;0.20;99.90;;;;;;5034762;28;20188;-86
2021/04/23 04:29:23;;;;;;;20.75;12.23;;;0.20;99.90;;;;;;5034910;28;20560;-84
2021/04/23 04:31:52;;;;;;;19.70;13.48;;;0.20;99.90;;;;;;5034520;28;20189;-84
2021/04/23 04:34:18;;;;;;;20.75;13.07;;;0.20;99.90;;;;;;5035145;28;20214;-84
2021/04/23 04:36:45;;;;;;;20.88;12.43;;;0.20;99.90;;;;;;5037748;28;20273;-84
2021/04/23 04:39:12;;;;;;;23.20;12.63;;;0.30;99.90;;;;;;5044111;28;20184;-85
2021/04/23 04:41:38;;;;;;;16.67;12.32;;;0.30;99.90;;;;;;5045464;28;20189;-85
2021/04/23 04:44:05;;;;;;;17.92;11.13;;;0.40;99.90;;;;;;5044628;28;20197;-85
2021/04/23 04:46:31;;;;;;;20.85;11.10;;;0.40;99.90;;;;;;5044372;28;20196;-85
2021/04/23 04:48:58;;;;;;;17.45;11.85;;;0.40;99.90;;;;;;5044169;28;20209;-85
2021/04/23 04:51:25;;;;;;;17.90;11.85;;;0.40;99.90;;;;;;5044736;28;20205;-85
2021/04/23 04:53:51;;;;;;;25.15;12.75;;;0.40;99.90;;;;;;5034716;28;20590;-84
2021/04/23 04:56:17;;;;;;;26.17;13.57;;;0.50;99.90;;;;;;5034192;28;20547;-85
2021/04/23 04:58:44;;;;;;;18.25;13.82;;;0.50;99.90;;;;;;5034228;28;20182;-84
2021/04/23 05:01:11;;;;;;;26.55;15.30;;;0.50;99.90;;;;;;5035361;28;20193;-84
2021/04/23 05:03:38;;;;;;;19.83;13.32;;;0.60;99.90;;;;;;5035125;28;20187;-84
2021/04/23 05:06:08;;;;;;;29.63;13.77;;;0.60;99.90;;;;;;5034291;28;20664;-82
2021/04/23 05:08:34;;;;;;;20.77;15.13;;;0.70;99.90;;;;;;5033739;28;20214;-83
2021/04/23 05:11:01;;;;;;;15.48;12.68;;;0.80;99.90;;;;;;5034248;28;20256;-84
2021/04/23 05:13:27;;;;;;;24.08;13.80;;;1.00;99.90;;;;;;5033321;28;20586;-84
2021/04/23 05:15:53;;;;;;;22.20;12.50;;;1.10;99.90;;;;;;5033219;28;20192;-85
2021/04/23 05:18:20;;;;;;;16.30;11.95;;;1.30;99.90;;;;;;5033473;28;20205;-85
2021/04/23 05:20:46;;;;;;;22.13;14.50;;;1.40;99.90;;;;;;5033747;28;20637;-85
2021/04/23 05:23:14;;;;;;;22.77;13.90;;;1.50;99.90;;;;;;5033794;28;20637;-84
2021/04/23 05:25:40;;;;;;;21.52;12.77;;;1.80;99.90;;;;;;5033980;28;20200;-84
2021/04/23 05:28:07;;;;;;;18.48;13.35;;;1.90;99.90;;;;;;5033971;28;20711;-87
2021/04/23 05:30:35;;;;;;;22.25;12.75;;;2.00;99.90;;;;;;5033694;28;20211;-89
2021/04/23 05:33:04;;;;;;;24.30;13.73;;;2.00;99.90;;;;;;5034412;28;20591;-88
2021/04/23 05:35:31;;;;;;;20.55;14.00;;;2.10;99.90;;;;;;5035330;28;20537;-89
2021/04/23 05:37:58;;;;;;;17.48;12.25;;;2.10;99.90;;;;;;5034698;28;20190;-88
2021/04/23 05:40:29;;;;;;;27.23;16.90;;;2.20;99.90;;;;;;5048405;28;20187;-88
2021/04/23 05:42:56;;;;;;;30.33;14.95;;;2.20;99.90;;;;;;5044762;28;20202;-86
2021/04/23 05:45:23;;;;;;;18.77;12.02;;;2.30;99.90;;;;;;5034994;28;20193;-88
2021/04/23 05:47:50;;;;;;;22.17;13.20;;;2.40;99.90;;;;;;5035187;28;20621;-87
2021/04/23 05:50:17;;;;;;;24.05;13.80;;;2.50;99.90;;;;;;5041474;28;20235;-90
2021/04/23 05:52:44;;;;;;;17.42;13.15;;;2.60;99.90;;;;;;5063117;28;20200;-93
2021/04/23 05:55:13;;;;;;;30.08;14.80;;;2.60;99.90;;;;;;5051150;28;20220;-89
2021/04/23 05:57:41;;;;;;;29.17;14.05;;;2.70;99.90;;;;;;5034491;28;20194;-87
2021/04/23 06:00:11;;;;;;;18.90;11.93;;;2.80;99.90;;;;;;5033019;28;20703;-84
2021/04/23 06:02:38;;;;;;;20.17;12.13;;;2.90;99.90;;;;;;5030418;28;20208;-83
2021/04/23 06:05:06;;;;;;;21.20;11.27;;;3.00;99.90;;;;;;5037126;28;20203;-85
2021/04/23 06:07:32;;;;;;;17.95;12.63;;;3.10;99.90;;;;;;5036539;28;20209;-85
2021/04/23 06:09:59;;;;;;;21.85;11.73;;;3.20;99.90;;;;;;5037439;28;20207;-85
2021/04/23 06:12:25;;;;;;;19.25;11.50;;;3.20;99.90;;;;;;5042050;28;20645;-85
2021/04/23 06:14:52;;;;;;;20.63;13.45;;;3.30;99.90;;;;;;5043460;28;20216;-84
2021/04/23 06:17:18;;;;;;;20.05;11.35;;;3.50;99.90;;;;;;5043356;28;20603;-85
2021/04/23 06:19:45;;;;;;;19.63;14.00;;;3.60;99.90;;;;;;5043671;28;20196;-84
2021/04/23 06:22:11;;;;;;;16.33;10.70;;;3.70;99.90;;;;;;5041006;28;20193;-85
2021/04/23 06:24:37;;;;;;;18.85;11.80;;;3.80;99.90;;;;;;5034314;28;20220;-85
2021/04/23 06:27:04;;;;;;;21.45;12.30;;;3.80;99.90;;;;;;5035195;28;20178;-85
2021/04/23 06:29:32;;;;;;;19.42;10.20;;;3.80;99.90;;;;;;5046176;28;20215;-85
2021/04/23 06:32:00;;;;;;;19.33;11.35;;;4.00;99.90;;;;;;5044490;28;20200;-84
2021/04/23 06:34:26;;;;;;;16.60;10.73;;;4.10;99.90;;;;;;5039663;28;20224;-84
2021/04/23 06:36:52;;;;;;;15.02;9.70;;;4.10;99.90;;;;;;5038250;28;20189;-84
2021/04/23 06:39:19;;;;;;;14.50;10.27;;;4.30;99.90;;;;;;5037898;28;20606;-83
2021/04/23 06:41:47;;;;;;;14.05;9.18;;;4.40;99.90;;;;;;5037261;28;20647;-84
2021/04/23 06:44:14;;;;;;;17.25;9.50;;;4.50;99.90;;;;;;5036610;28;20192;-84
2021/04/23 06:46:41;;;;;;;21.42;9.52;;;4.60;99.90;;;;;;5036818;28;20262;-85
2021/04/23 06:49:08;;;;;;;18.30;7.80;;;4.70;99.90;;;;;;5017273;28;20213;-84
2021/04/23 06:51:36;;;;;;;15.93;10.30;;;4.80;99.90;;;;;;5022273;28;20598;-84
2021/04/23 06:54:04;;;;;;;16.30;9.48;;;5.00;99.90;;;;;;5017819;28;20268;-84
2021/04/23 06:56:30;;;;;;;14.32;8.70;;;5.10;99.90;;;;;;5030061;28;20243;-85
2021/04/23 06:58:57;;;;;;;14.77;8.82;;;5.20;99.90;;;;;;5037619;28;20598;-84
2021/04/23 07:01:23;;;;;;;15.55;9.80;;;5.30;99.90;;;;;;5037255;28;20196;-84
2021/04/23 07:03:50;;;;;;;17.10;9.10;;;5.40;99.90;;;;;;5036940;28;20192;-84
2021/04/23 07:06:17;;;;;;;14.18;8.50;;;5.50;99.90;;;;;;5036594;28;20185;-86
2021/04/23 07:08:44;;;;;;;12.38;7.18;;;5.60;99.90;;;;;;5017398;28;20495;-85
2021/04/23 07:11:10;;;;;;;8.85;6.55;;;5.60;99.90;;;;;;5017425;28;20237;-85
2021/04/23 07:13:37;;;;;;;11.70;7.60;;;5.60;99.90;;;;;;5036791;28;20186;-85
2021/04/23 07:16:04;;;;;;;11.35;6.00;;;5.80;99.90;;;;;;5036881;28;20661;-85
2021/04/23 07:18:30;;;;;;;8.25;6.60;;;5.80;99.90;;;;;;5036306;28;20567;-86
2021/04/23 07:20:57;;;;;;;15.68;8.98;;;5.90;99.90;;;;;;5036678;28;20189;-85
2021/04/23 07:23:24;;;;;;;16.60;6.32;;;6.00;99.90;;;;;;5036694;28;20560;-84
2021/04/23 07:25:50;;;;;;;12.80;4.32;;;6.20;99.90;;;;;;5033404;28;20197;-84
2021/04/23 07:28:17;;;;;;;12.13;6.15;;;6.40;99.90;;;;;;5037319;28;20672;-85
2021/04/23 07:30:52;;;;;;;12.27;5.10;;;6.60;99.90;;;;;;5046435;28;20185;-84
2021/04/23 07:33:18;;;;;;;7.90;3.97;;;6.90;99.90;;;;;;5035977;28;20228;-84
2021/04/23 07:35:47;;;;;;;6.88;4.38;;;7.20;99.90;;;;;;5034348;28;20192;-85
2021/04/23 07:38:14;;;;;;;9.95;4.88;;;7.30;99.90;;;;;;5033180;28;20288;-86
2021/04/23 07:40:41;;;;;;;10.25;5.05;;;7.50;99.90;;;;;;5035314;28;20189;-85
2021/04/23 07:43:08;;;;;;;10.82;5.00;;;7.70;99.90;;;;;;5035987;28;20214;-84
2021/04/23 07:45:34;;;;;;;10.68;4.45;;;7.80;99.90;;;;;;5036015;28;20723;-85
2021/04/23 07:48:01;;;;;;;11.23;4.82;;;7.80;99.90;;;;;;5035416;28;20205;-85
2021/04/23 07:50:28;;;;;;;9.80;4.20;;;7.90;99.90;;;;;;5037871;28;20194;-85
2021/04/23 07:52:55;;;;;;;9.57;4.85;;;8.30;99.90;;;;;;5037571;28;20654;-85
2021/04/23 07:55:23;;;;;;;8.68;4.25;;;8.60;99.90;;;;;;5038271;28;20215;-85
2021/04/23 07:57:53;;;;;;;9.68;4.57;;;8.80;99.90;;;;;;5038441;28;20223;-85
2021/04/23 08:00:21;;;;;;;11.25;4.07;;;9.10;99.90;;;;;;5054726;28;20193;-84
2021/04/23 08:02:48;;;;;;;9.05;5.78;;;8.90;99.90;;;;;;5058539;28;20238;-84
2021/04/23 08:05:16;;;;;;;9.55;4.53;;;9.00;99.90;;;;;;5058985;28;20185;-86
2021/04/23 08:07:44;;;;;;;6.22;4.10;;;8.90;99.90;;;;;;5049905;28;20211;-85
2021/04/23 08:10:12;;;;;;;6.78;4.35;;;8.90;99.90;;;;;;5035830;28;20195;-85
2021/04/23 08:12:39;;;;;;;7.60;5.03;;;8.70;99.90;;;;;;5035901;28;20669;-85
2021/04/23 08:15:07;;;;;;;8.40;6.00;;;8.50;99.90;;;;;;5035624;28;20212;-85
2021/04/23 08:17:34;;;;;;;8.50;5.20;;;8.40;99.90;;;;;;5015998;28;20558;-85
2021/04/23 08:20:01;;;;;;;13.32;5.60;;;8.60;99.90;;;;;;5016098;28;20193;-85
2021/04/23 08:22:27;;;;;;;9.10;5.30;;;8.80;99.90;;;;;;5034091;28;20199;-85
2021/04/23 08:24:53;;;;;;;8.65;4.90;;;9.00;99.90;;;;;;5036575;28;20189;-86
2021/04/23 08:27:20;;;;;;;8.85;6.00;;;9.30;99.90;;;;;;5034620;28;20185;-85
2021/04/23 08:29:46;;;;;;;7.90;4.72;;;9.60;99.90;;;;;;5036483;28;20191;-85
2021/04/23 08:32:16;;;;;;;7.68;4.03;;;10.00;99.90;;;;;;5035488;28;20192;-85
2021/04/23 08:34:42;;;;;;;24.85;5.60;;;10.20;99.90;;;;;;5035585;28;20193;-85
2021/04/23 08:37:08;;;;;;;14.30;5.18;;;10.40;99.90;;;;;;5034713;28;20200;-85
2021/04/23 08:39:36;;;;;;;6.65;5.38;;;10.20;99.90;;;;;;5034988;28;20196;-84
2021/04/23 08:42:03;;;;;;;7.38;4.43;;;10.10;99.90;;;;;;5035147;28;20280;-86
2021/04/23 08:44:29;;;;;;;5.80;4.10;;;10.00;99.90;;;;;;5035019;28;20192;-85
2021/04/23 08:46:56;;;;;;;11.43;6.03;;;9.70;99.90;;;;;;5049492;28;20192;-85
2021/04/23 08:49:24;;;;;;;14.88;5.93;;;9.60;99.90;;;;;;5057437;28;20312;-85
2021/04/23 08:51:51;;;;;;;10.95;5.50;;;9.50;99.90;;;;;;5053784;28;20267;-84
2021/04/23 08:54:19;;;;;;;18.20;7.15;;;9.40;99.90;;;;;;5036764;28;20193;-85
2021/04/23 08:56:46;;;;;;;11.60;5.20;;;9.50;99.90;;;;;;5034225;28;20204;-85
2021/04/23 08:59:13;;;;;;;8.93;4.80;;;9.80;99.90;;;;;;5034231;28;20195;-85
2021/04/23 09:01:40;;;;;;;9.10;5.63;;;9.90;99.90;;;;;;5033947;28;20192;-85
2021/04/23 09:04:06;;;;;;;9.18;5.22;;;9.70;99.90;;;;;;5034405;28;20303;-86
2021/04/23 09:06:33;;;;;;;12.80;5.15;;;9.60;99.90;;;;;;5033508;28;20185;-86
2021/04/23 09:09:04;;;;;;;8.13;4.88;;;9.70;99.90;;;;;;5025021;28;20223;-85
2021/04/23 09:11:35;;;;;;;8.48;4.75;;;9.90;99.90;;;;;;5030234;28;20665;-87
2021/04/23 09:14:03;;;;;;;8.55;4.50;;;9.80;99.90;;;;;;5031650;28;20191;-87
2021/04/23 09:16:51;;;;;;;10.70;5.15;;;9.60;99.90;;;;;;5032616;28;20192;-86
2021/04/23 09:19:21;;;;;;;9.18;5.22;;;9.50;99.90;;;;;;5026150;28;20196;-86
2021/04/23 09:21:52;;;;;;;11.93;5.85;;;9.40;99.90;;;;;;5033115;28;20240;-85
2021/04/23 09:24:21;;;;;;;7.75;5.65;;;9.40;99.90;;;;;;5039499;28;20195;-86
2021/04/23 09:26:48;;;;;;;10.98;5.15;;;9.60;99.90;;;;;;5036057;28;20198;-87
2021/04/23 09:29:24;;;;;;;6.85;4.38;;;9.70;99.90;;;;;;5033459;28;20227;-87
2021/04/23 09:31:51;;;;;;;16.95;5.25;;;9.90;99.90;;;;;;5033340;28;20576;-87
2021/04/23 09:34:18;;;;;;;8.27;4.72;;;10.00;99.90;;;;;;5018563;28;20238;-87
2021/04/23 09:36:46;;;;;;;7.00;4.75;;;10.00;99.90;;;;;;5033233;28;20185;-86
2021/04/23 09:39:15;;;;;;;5.90;3.60;;;10.10;99.90;;;;;;5034153;28;20279;-87
2021/04/23 09:41:44;;;;;;;7.90;3.70;;;10.20;99.90;;;;;;5033775;28;20191;-86
2021/04/23 09:44:30;;;;;;;13.05;5.65;;;10.00;99.90;;;;;;5034013;28;20192;-85
2021/04/23 09:47:02;;;;;;;7.70;4.68;;;10.10;99.90;;;;;;5048620;28;20663;-86
2021/04/23 09:49:29;;;;;;;6.85;3.97;;;10.30;99.90;;;;;;5042582;28;20298;-86
2021/04/23 09:51:55;;;;;;;8.40;4.43;;;10.40;99.90;;;;;;5053721;28;20191;-86
2021/04/23 09:54:24;;;;;;;12.27;6.05;;;10.40;99.90;;;;;;5033370;28;20180;-85
2021/04/23 09:56:53;;;;;;;9.20;4.90;;;10.50;99.90;;;;;;5033664;28;20181;-86
2021/04/23 09:59:21;;;;;;;8.23;4.40;;;10.50;99.90;;;;;;5042811;28;20189;-87
2021/04/23 10:01:57;;;;;;;9.15;5.00;;;10.50;99.90;;;;;;5038233;28;20426;-87
2021/04/23 10:04:25;;;;;;;8.65;3.55;;;10.60;99.90;;;;;;5053619;28;20243;-86
2021/04/23 10:07:20;;;;;;;8.10;5.05;;;10.70;99.90;;;;;;5062028;28;20176;-88
2021/04/23 10:09:54;;;;;;;12.75;4.40;;;10.80;99.90;;;;;;5061682;28;20177;-86
2021/04/23 10:12:30;;;;;;;6.88;4.40;;;10.80;99.90;;;;;;5060274;28;20192;-87
2021/04/23 10:14:57;;;;;;;7.00;4.47;;;10.80;99.90;;;;;;5060457;28;20172;-87
2021/04/23 10:17:24;;;;;;;7.95;3.95;;;10.80;99.90;;;;;;5059388;28;20201;-85
2021/04/23 10:19:51;;;;;;;6.53;4.43;;;11.00;99.90;;;;;;5058779;28;20208;-87
2021/04/23 10:22:17;;;;;;;6.68;4.10;;;11.20;99.90;;;;;;5050877;28;20177;-87
2021/04/23 10:24:44;;;;;;;7.57;4.10;;;11.40;99.90;;;;;;5044327;28;20185;-86
2021/04/23 10:27:12;;;;;;;7.55;5.05;;;11.30;99.90;;;;;;5041828;28;20197;-86
2021/04/23 10:29:38;;;;;;;13.63;5.43;;;11.30;99.90;;;;;;5042572;28;20216;-87
2021/04/23 10:32:05;;;;;;;9.93;4.78;;;11.30;99.90;;;;;;5045490;28;20226;-87
2021/04/23 10:34:33;;;;;;;7.75;5.22;;;11.00;99.90;;;;;;5041001;28;20670;-86
2021/04/23 10:36:59;;;;;;;9.30;5.20;;;11.10;99.90;;;;;;5041402;28;20192;-86
2021/04/23 10:39:27;;;;;;;10.65;5.10;;;11.30;99.90;;;;;;5045816;28;20211;-87
2021/04/23 10:41:53;;;;;;;9.35;4.68;;;11.10;99.90;;;;;;5046877;28;20200;-87
2021/04/23 10:44:22;;;;;;;8.38;5.13;;;11.20;99.90;;;;;;5047294;28;20181;-87
2021/04/23 10:46:53;;;;;;;12.02;5.88;;;11.20;99.90;;;;;;5048535;28;20279;-86
2021/04/23 10:49:20;;;;;;;12.50;5.32;;;11.30;99.90;;;;;;5049118;28;20213;-87
2021/04/23 10:51:47;;;;;;;11.70;5.22;;;11.30;99.90;;;;;;5042885;28;20188;-86
2021/04/23 10:54:15;;;;;;;12.07;5.35;;;11.40;99.90;;;;;;5038088;28;20192;-87
2021/04/23 10:56:50;;;;;;;7.53;4.72;;;11.60;99.90;;;;;;5036773;28;20212;-86
2021/04/23 10:59:32;;;;;;;8.15;5.22;;;11.70;99.90;;;;;;5037072;28;20191;-86
2021/04/23 11:02:13;;;;;;;8.52;5.05;;;11.60;99.90;;;;;;5034764;28;20189;-86
2021/04/23 11:04:54;;;;;;;6.40;4.30;;;11.70;99.90;;;;;;5038292;28;20192;-86
2021/04/23 11:07:20;;;;;;;11.35;5.45;;;11.90;99.90;;;;;;5036835;28;20196;-86
2021/04/23 11:09:58;;;;;;;7.05;4.95;;;12.00;99.90;;;;;;5036441;28;20214;-84
2021/04/23 11:12:26;;;;;;;9.15;5.10;;;12.00;99.90;;;;;;5036884;28;20188;-86
2021/04/23 11:15:11;;;;;;;8.50;4.47;;;11.70;99.90;;;;;;5035405;28;20238;-86
2021/04/23 11:17:39;;;;;;;8.00;4.40;;;11.60;99.90;;;;;;5037765;28;20194;-86
2021/04/23 11:20:24;;;;;;;11.57;5.45;;;11.40;99.90;;;;;;5037195;28;20188;-86
2021/04/23 11:22:56;;;;;;;12.65;6.20;;;11.40;99.90;;;;;;5036626;28;20224;-85
2021/04/23 11:25:23;;;;;;;9.65;4.53;;;11.70;99.90;;;;;;5036561;28;20189;-85
2021/04/23 11:28:11;;;;;;;11.38;4.90;;;12.10;99.90;;;;;;5034679;28;20427;-85
2021/04/23 11:31:05;;;;;;;8.15;4.60;;;12.20;99.90;;;;;;5036325;28;20203;-85
2021/04/23 11:33:46;;;;;;;8.40;5.00;;;12.30;99.90;;;;;;5032907;28;20777;-85
2021/04/23 11:36:27;;;;;;;9.27;5.20;;;13.10;99.90;;;;;;5035703;28;20223;-86
2021/04/23 11:39:01;;;;;;;9.85;5.05;;;13.80;99.90;;;;;;5035971;28;20192;-86
2021/04/23 11:41:28;;;;;;;11.38;5.53;;;14.30;99.90;;;;;;5015424;28;20409;-85
2021/04/23 11:43:55;;;;;;;8.43;5.40;;;15.20;99.90;;;;;;5031317;28;20424;-85
2021/04/23 11:46:53;;;;;;;8.52;5.35;;;16.20;99.90;;;;;;5036728;28;20181;-86
2021/04/23 11:49:19;;;;;;;9.07;5.23;;;16.80;99.90;;;;;;5035069;28;20438;-86
2021/04/23 11:51:50;;;;;;;5.93;4.78;;;16.80;99.90;;;;;;5036425;28;20440;-85
2021/04/23 11:54:33;;;;;;;6.75;5.13;;;16.80;99.90;;;;;;5040255;28;20199;-85
2021/04/23 11:57:01;;;;;;;7.13;5.07;;;17.30;99.90;;;;;;5040425;28;20193;-85
2021/04/23 11:59:28;;;;;;;8.18;4.90;;;17.70;99.90;;;;;;5045292;28;20203;-86
2021/04/23 12:01:55;;;;;;;6.63;4.63;;;17.50;99.90;;;;;;5053720;28;20183;-85
2021/04/23 12:04:46;;;;;;;8.55;5.25;;;17.80;99.90;;;;;;5042915;28;20185;-85
2021/04/23 12:07:13;;;;;;;10.38;5.35;;;18.00;99.90;;;;;;5038559;28;20212;-86
2021/04/23 12:09:41;;;;;;;11.40;5.18;;;18.00;99.90;;;;;;5051288;28;20625;-86
2021/04/23 12:12:11;;;;;;;6.78;4.80;;;18.50;99.90;;;;;;5049073;28;20275;-86
2021/04/23 12:14:48;;;;;;;6.90;4.95;;;18.80;99.90;;;;;;5039981;28;20195;-87
2021/04/23 12:17:16;;;;;;;9.13;4.90;;;18.90;99.90;;;;;;5044161;28;20188;-86
2021/04/23 12:19:43;;;;;;;8.70;5.13;;;19.10;99.90;;;;;;5046363;28;20275;-86
2021/04/23 12:22:10;;;;;;;10.32;4.40;;;18.80;99.90;;;;;;5035272;28;20177;-86
2021/04/23 12:24:36;;;;;;;11.57;5.10;;;18.70;99.90;;;;;;5035124;28;20180;-85
2021/04/23 12:27:03;;;;;;;9.30;5.35;;;19.40;99.90;;;;;;5032608;28;20239;-85
2021/04/23 12:29:29;;;;;;;9.30;4.75;;;19.70;99.90;;;;;;5037294;28;20308;-86
2021/04/23 12:31:56;;;;;;;15.80;6.40;;;20.20;99.90;;;;;;5038638;28;20181;-85
2021/04/23 12:34:23;;;;;;;7.45;5.00;;;20.10;99.90;;;;;;5037390;28;20213;-86
2021/04/23 12:36:50;;;;;;;8.13;5.65;;;19.90;99.90;;;;;;5036045;28;20243;-85
2021/04/23 12:39:20;;;;;;;8.10;4.93;;;20.10;99.90;;;;;;5035999;28;20210;-86
2021/04/23 12:41:48;;;;;;;9.93;5.97;;;21.20;99.90;;;;;;5036090;28;20220;-86
2021/04/23 12:44:16;;;;;;;10.43;5.20;;;21.90;99.90;;;;;;5035677;28;20192;-86
2021/04/23 12:46:46;;;;;;;8.88;5.30;;;22.70;99.90;;;;;;5035224;28;20205;-86
2021/04/23 12:49:16;;;;;;;8.48;5.13;;;22.80;98.80;;;;;;5035610;28;20243;-87
2021/04/23 12:51:46;;;;;;;10.15;5.00;;;22.50;99.50;;;;;;5036325;28;20181;-87